createdAt,value
2022-08-14T00:03:42.687Z,9.48
2022-08-14T00:08:44.835Z,9.48
2022-08-14T00:13:41.169Z,9.61
2022-08-14T00:19:06.168Z,9.09
2022-08-14T00:23:39.537Z,9.61
2022-08-14T00:28:38.840Z,9.86
2022-08-14T00:33:52.272Z,9.61
2022-08-14T00:38:38.352Z,9.86
2022-08-14T00:43:37.667Z,10.11
2022-08-14T00:48:38.393Z,9.42
2022-08-14T00:53:35.068Z,10.11
2022-08-14T00:58:34.559Z,9.19
2022-08-14T01:03:34.709Z,9.66
2022-08-14T01:08:51.253Z,9.42
2022-08-14T01:13:42.272Z,9.42
2022-08-14T01:18:32.287Z,9.42
2022-08-14T01:23:41.794Z,9.66
2022-08-14T01:28:47.156Z,9.42
2022-08-14T01:33:30.956Z,9.66
2022-08-14T01:38:29.118Z,9.19
2022-08-14T01:43:27.421Z,9.19
2022-08-14T01:48:28.757Z,9.87
2022-08-14T01:53:26.899Z,9.42
2022-08-14T01:58:28.992Z,8.96
2022-08-14T02:03:24.355Z,9.42
2022-08-14T02:08:35.372Z,9.19
2022-08-14T02:13:21.745Z,9.42
2022-08-14T02:18:21.900Z,9.42
2022-08-14T02:23:29.113Z,9.42
2022-08-14T02:28:56.125Z,9.14
2022-08-14T02:33:19.613Z,8.92
2022-08-14T02:38:29.616Z,9.65
2022-08-14T02:43:17.926Z,9.65
2022-08-14T02:49:01.293Z,9.87
2022-08-14T02:53:16.508Z,8.92
2022-08-14T02:58:21.413Z,9.14
2022-08-14T03:03:16.136Z,9.65
2022-08-14T03:08:15.311Z,8.92
2022-08-14T03:13:19.110Z,8.92
2022-08-14T03:18:12.753Z,9.36
2022-08-14T03:23:11.913Z,9.14
2022-08-14T03:28:29.403Z,9.57
2022-08-14T03:33:10.887Z,9.57
2022-08-14T03:39:15.184Z,9.57
2022-08-14T03:43:09.815Z,9.14
2022-08-14T03:48:11.009Z,9.14
2022-08-14T03:53:08.300Z,9.14
2022-08-14T03:58:06.597Z,9.36
2022-08-14T04:03:06.763Z,9.57
2022-08-14T04:08:22.310Z,9.36
2022-08-14T04:13:04.460Z,9.03
2022-08-14T04:18:04.418Z,9.57
2022-08-14T04:23:02.528Z,9.78
2022-08-14T04:28:03.318Z,9.36
2022-08-14T04:33:07.664Z,9.36
2022-08-14T04:38:01.165Z,9.36
2022-08-14T04:42:59.343Z,9.99
2022-08-14T04:47:58.502Z,9.36
2022-08-14T04:52:59.679Z,9.78
2022-08-14T04:57:56.865Z,9.78
2022-08-14T05:02:56.056Z,9.57
2022-08-14T05:08:01.486Z,9.78
2022-08-14T05:13:11.887Z,9.99
2022-08-14T05:18:03.683Z,9.78
2022-08-14T05:22:56.189Z,9.57
2022-08-14T05:27:51.996Z,10.31
2022-08-14T05:32:51.194Z,9.36
2022-08-14T05:37:50.328Z,9.78
2022-08-14T05:42:52.719Z,9.99
2022-08-14T05:47:50.800Z,10.31
2022-08-14T05:52:48.173Z,10.53
2022-08-14T05:57:48.491Z,9.87
2022-08-14T06:02:46.839Z,10.11
2022-08-14T06:07:46.136Z,10.14
2022-08-14T06:12:56.466Z,10.09
2022-08-14T06:17:46.326Z,10.14
2022-08-14T06:22:43.859Z,9.42
2022-08-14T06:27:42.862Z,10.11
2022-08-14T06:32:52.984Z,9.90
2022-08-14T06:37:41.519Z,10.55
2022-08-14T06:42:40.526Z,10.02
2022-08-14T06:47:38.780Z,10.12
2022-08-14T06:52:40.961Z,10.47
2022-08-14T06:57:38.110Z,10.40
2022-08-14T07:02:37.352Z,9.48
2022-08-14T07:07:36.447Z,10.68
2022-08-14T07:12:56.523Z,10.76
2022-08-14T07:17:36.363Z,9.87
2022-08-14T07:22:55.893Z,9.87
2022-08-14T07:27:33.589Z,10.48
2022-08-14T07:32:39.356Z,10.48
2022-08-14T07:37:33.702Z,10.16
2022-08-14T07:42:30.800Z,10.16
2022-08-14T07:47:29.971Z,10.75
2022-08-14T07:52:30.567Z,10.09
2022-08-14T07:57:27.401Z,10.75
2022-08-14T08:02:27.737Z,10.09
2022-08-14T08:07:29.829Z,10.09
2022-08-14T08:12:28.147Z,10.42
2022-08-14T08:17:27.565Z,9.74
2022-08-14T08:22:27.438Z,10.09
2022-08-14T08:27:25.914Z,10.09
2022-08-14T08:32:29.671Z,10.09
2022-08-14T08:37:25.343Z,10.09
2022-08-14T08:42:24.475Z,10.09
2022-08-14T08:47:18.763Z,10.09
2022-08-14T08:52:25.509Z,10.99
2022-08-14T08:57:21.493Z,9.93
2022-08-14T09:02:19.366Z,10.65
2022-08-14T09:07:17.558Z,9.93
2022-08-14T09:12:17.796Z,10.65
2022-08-14T09:17:17.099Z,10.99
2022-08-14T09:22:35.935Z,10.99
2022-08-14T09:27:22.505Z,10.99
2022-08-14T09:32:59.155Z,10.99
2022-08-14T09:37:14.962Z,10.99
2022-08-14T09:42:20.089Z,10.99
2022-08-14T09:47:12.403Z,10.65
2022-08-14T09:52:32.954Z,10.99
2022-08-14T09:57:11.823Z,10.99
2022-08-14T10:02:09.780Z,10.99
2022-08-14T10:07:08.937Z,10.65
2022-08-14T10:12:18.728Z,10.65
2022-08-14T10:17:08.400Z,10.29
2022-08-14T10:23:14.896Z,10.65
2022-08-14T10:27:05.250Z,10.29
2022-08-14T10:32:18.245Z,10.83
2022-08-14T10:37:03.761Z,11.19
2022-08-14T10:42:03.930Z,11.90
2022-08-14T10:47:40.254Z,11.90
2022-08-14T10:52:01.296Z,11.90
2022-08-14T10:57:00.533Z,11.90
2022-08-14T11:01:59.752Z,11.55
2022-08-14T11:06:58.903Z,11.19
2022-08-14T11:12:34.729Z,11.55
2022-08-14T11:16:57.434Z,11.55
2022-08-14T11:21:57.575Z,11.90
2022-08-14T11:26:55.884Z,11.90
2022-08-14T11:31:57.220Z,11.90
2022-08-14T11:37:09.667Z,11.90
2022-08-14T11:41:55.944Z,11.90
2022-08-14T11:46:52.863Z,11.90
2022-08-14T11:51:54.347Z,12.24
2022-08-14T11:56:50.752Z,12.45
2022-08-14T12:01:50.670Z,12.80
2022-08-14T12:06:49.979Z,11.90
2022-08-14T12:11:51.642Z,12.45
2022-08-14T12:16:48.454Z,12.80
2022-08-14T12:21:48.240Z,12.80
2022-08-14T12:26:47.987Z,12.80
2022-08-14T12:31:47.023Z,12.45
2022-08-14T12:36:45.431Z,12.80
2022-08-14T12:41:45.615Z,12.80
2022-08-14T12:46:43.626Z,12.80
2022-08-14T12:51:42.955Z,12.80
2022-08-14T12:56:45.833Z,12.80
2022-08-14T13:02:00.337Z,12.80
2022-08-14T13:06:41.727Z,12.80
2022-08-14T13:11:41.314Z,12.80
2022-08-14T13:16:39.190Z,12.45
2022-08-14T13:22:05.427Z,12.45
2022-08-14T13:26:37.747Z,12.45
2022-08-14T13:31:36.860Z,11.35
2022-08-14T13:36:51.973Z,11.73
2022-08-14T13:41:37.404Z,11.73
2022-08-14T13:46:34.707Z,11.35
2022-08-14T13:51:34.036Z,11.35
2022-08-14T13:56:36.299Z,11.35
2022-08-14T14:01:39.170Z,11.73
2022-08-14T14:06:32.538Z,11.35
2022-08-14T14:11:30.781Z,11.73
2022-08-14T14:16:31.280Z,11.35
2022-08-14T14:21:29.309Z,11.35
2022-08-14T14:26:28.431Z,11.86
2022-08-14T14:31:30.126Z,11.35
2022-08-14T14:36:28.052Z,11.86
2022-08-14T14:41:26.192Z,12.25
2022-08-14T14:46:36.517Z,12.25
2022-08-14T14:51:24.549Z,11.86
2022-08-14T14:56:49.722Z,12.25
2022-08-14T15:01:22.941Z,11.86
2022-08-14T15:06:22.096Z,12.25
2022-08-14T15:11:22.273Z,12.25
2022-08-14T15:16:20.596Z,12.25
2022-08-14T15:21:21.862Z,12.25
2022-08-14T15:26:23.704Z,11.86
2022-08-14T15:31:18.309Z,11.95
2022-08-14T15:36:26.165Z,11.47
2022-08-14T15:41:16.784Z,11.47
2022-08-14T15:46:38.480Z,11.47
2022-08-14T15:51:16.328Z,11.95
2022-08-14T15:56:20.817Z,11.95
2022-08-14T16:01:22.455Z,11.95
2022-08-14T16:06:15.461Z,11.95
2022-08-14T16:11:10.959Z,11.53
2022-08-14T16:16:48.971Z,11.53
2022-08-14T16:21:10.298Z,11.53
2022-08-14T16:26:09.463Z,11.95
2022-08-14T16:31:09.950Z,11.95
2022-08-14T16:36:29.812Z,12.75
2022-08-14T16:41:06.940Z,11.86
2022-08-14T16:46:06.295Z,11.86
2022-08-14T16:51:06.760Z,11.86
2022-08-14T16:56:05.638Z,11.86
2022-08-14T17:01:22.484Z,11.86
2022-08-14T17:06:10.826Z,12.25
2022-08-14T17:11:04.719Z,11.86
2022-08-14T17:16:01.436Z,12.25
2022-08-14T17:21:01.877Z,12.25
2022-08-14T17:26:01.952Z,12.25
2022-08-14T17:30:59.276Z,11.73
2022-08-14T17:36:00.601Z,11.73
2022-08-14T17:40:58.502Z,11.73
2022-08-14T17:45:57.830Z,11.35
2022-08-14T17:50:59.564Z,12.09
2022-08-14T17:56:01.224Z,12.09
2022-08-14T18:00:54.600Z,11.73
2022-08-14T18:06:06.420Z,11.35
2022-08-14T18:10:56.043Z,11.73
2022-08-14T18:15:53.245Z,10.83
2022-08-14T18:21:41.927Z,11.55
2022-08-14T18:25:51.562Z,11.55
2022-08-14T18:30:58.098Z,11.33
2022-08-14T18:35:59.795Z,11.33
2022-08-14T18:40:48.429Z,11.33
2022-08-14T18:45:47.611Z,11.66
2022-08-14T18:50:47.997Z,11.66
2022-08-14T18:55:53.518Z,11.33
2022-08-14T19:00:51.029Z,12.57
2022-08-14T19:05:47.604Z,11.90
2022-08-14T19:10:45.636Z,12.24
2022-08-14T19:15:42.848Z,12.31
2022-08-14T19:20:43.367Z,12.62
2022-08-14T19:25:41.412Z,12.62
2022-08-14T19:30:40.775Z,12.93
2022-08-14T19:35:48.819Z,13.24
2022-08-14T19:40:40.137Z,13.83
2022-08-14T19:45:40.245Z,13.22
2022-08-14T19:50:40.396Z,12.31
2022-08-14T19:55:36.929Z,12.90
2022-08-14T20:00:52.160Z,13.53
2022-08-14T20:05:45.909Z,13.53
2022-08-14T20:11:11.062Z,14.12
2022-08-14T20:16:01.455Z,13.24
2022-08-14T20:20:34.107Z,15.22
2022-08-14T20:25:32.736Z,14.12
2022-08-14T20:30:36.173Z,14.68
2022-08-14T20:35:35.621Z,14.29
2022-08-14T20:40:30.923Z,14.29
2022-08-14T20:45:30.228Z,14.29
2022-08-14T20:50:29.453Z,14.81
2022-08-14T20:55:27.691Z,14.29
2022-08-14T21:00:27.999Z,14.02
2022-08-14T21:05:34.362Z,14.02
2022-08-14T21:10:35.770Z,13.09
2022-08-14T21:15:26.620Z,13.75
2022-08-14T21:20:27.141Z,13.19
2022-08-14T21:25:23.080Z,13.47
2022-08-14T21:30:46.863Z,13.19
2022-08-14T21:35:22.747Z,13.47
2022-08-14T21:40:42.667Z,13.47
2022-08-14T23:33:24.692Z,14.17
2022-08-14T23:38:31.048Z,14.63
2022-08-14T23:43:22.991Z,14.13
2022-08-14T23:48:27.895Z,14.63
2022-08-14T23:53:28.643Z,14.63
2022-08-14T23:58:29.256Z,13.93
